Time;durP1;ratioP1;P1;durP2;ratioP2;P2;SDS_P1;SDS_P2;PMS_P1;PMS_P2;Temp;Humidity;BMP_temperature;BMP_pressure;BME280_temperature;BME280_humidity;BME280_pressure;Samples;Min_cycle;Max_cycle;Signal;HPM_P1;HPM_P2
2022/05/09 00:02:23;;;;;;;2.40;1.80;;;;;;;23.66;50.16;99813.78;4969565;29;20053;-86
2022/05/09 00:04:49;;;;;;;2.65;1.55;;;;;;;23.64;50.12;99805.06;4970273;29;20039;-84
2022/05/09 00:07:14;;;;;;;2.95;1.70;;;;;;;23.63;50.02;99806.03;4970709;29;20027;-87
2022/05/09 00:09:40;;;;;;;2.88;1.90;;;;;;;23.62;50.06;99799.81;4970562;29;20020;-87
2022/05/09 00:12:06;;;;;;;3.65;2.00;;;;;;;23.62;50.24;99807.81;4971440;29;20034;-87
2022/05/09 00:14:32;;;;;;;3.28;1.95;;;;;;;23.60;50.24;99804.41;4969947;29;20031;-85
2022/05/09 00:16:58;;;;;;;3.45;1.63;;;;;;;23.59;50.18;99797.38;4964710;29;20019;-83
2022/05/09 00:19:23;;;;;;;2.63;1.73;;;;;;;23.59;50.17;99790.22;4960349;29;20235;-85
2022/05/09 00:21:51;;;;;;;3.00;1.83;;;;;;;23.58;50.32;99801.84;4960353;29;20038;-84
2022/05/09 00:24:17;;;;;;;2.75;1.70;;;;;;;23.57;50.26;99802.81;4959753;29;20114;-85
2022/05/09 00:26:48;;;;;;;3.03;1.63;;;;;;;23.56;50.04;99798.44;4960327;29;20110;-85
2022/05/09 00:29:15;;;;;;;2.40;1.67;;;;;;;23.55;50.04;99802.06;4959197;29;20031;-85
2022/05/09 00:31:43;;;;;;;3.05;1.90;;;;;;;23.54;50.10;99796.84;4975285;28;20064;-84
2022/05/09 00:34:11;;;;;;;3.28;2.00;;;;;;;23.53;50.02;99793.31;4961697;29;20520;-86
2022/05/09 00:36:37;;;;;;;2.72;1.70;;;;;;;23.52;50.37;99793.41;4960145;29;20038;-84
2022/05/09 00:39:04;;;;;;;3.33;1.90;;;;;;;23.50;50.08;99792.66;4960450;29;20038;-84
2022/05/09 00:41:37;;;;;;;2.67;1.67;;;;;;;23.49;50.24;99791.81;4960672;29;20045;-85
2022/05/09 00:44:13;;;;;;;2.70;1.80;;;;;;;23.48;50.14;99790.09;4960137;29;20047;-85
2022/05/09 00:46:41;;;;;;;3.90;1.98;;;;;;;23.47;50.18;99785.72;4959622;29;20019;-83
2022/05/09 00:49:32;;;;;;;2.65;1.58;;;;;;;23.45;50.14;99784.97;4959576;29;20035;-84
2022/05/09 00:52:12;;;;;;;2.67;1.80;;;;;;;23.45;50.12;99780.50;4958589;28;20066;-83
2022/05/09 00:54:51;;;;;;;2.72;1.85;;;;;;;23.44;50.09;99783.28;4958853;29;20035;-84
2022/05/09 00:57:50;;;;;;;3.25;1.92;;;;;;;23.41;50.06;99772.81;4958834;29;20034;-85
2022/05/09 01:00:18;;;;;;;2.75;1.90;;;;;;;23.40;50.06;99782.63;4946110;29;20035;-86
2022/05/09 01:02:49;;;;;;;3.38;1.92;;;;;;;23.40;50.17;99787.09;4958089;29;20045;-84
2022/05/09 01:05:16;;;;;;;4.55;2.28;;;;;;;23.39;50.12;99782.72;4957412;29;20381;-84
2022/05/09 01:07:43;;;;;;;2.80;1.90;;;;;;;23.37;49.87;99780.16;4958467;29;20107;-83
2022/05/09 01:10:10;;;;;;;3.03;1.92;;;;;;;23.35;50.07;99774.09;4960137;29;20347;-85
2022/05/09 01:12:38;;;;;;;3.40;1.83;;;;;;;23.35;50.11;99781.22;4959799;29;20031;-84
2022/05/09 01:15:09;;;;;;;3.08;1.80;;;;;;;23.32;49.97;99788.47;4975062;28;20070;-85
2022/05/09 01:17:39;;;;;;;4.03;1.80;;;;;;;23.31;50.08;99789.41;4959002;29;20432;-84
2022/05/09 01:20:10;;;;;;;3.50;1.92;;;;;;;23.30;50.22;99795.66;4960297;29;20106;-85
2022/05/09 01:22:36;;;;;;;3.08;2.15;;;;;;;23.31;49.79;99789.41;4959122;29;20027;-85
2022/05/09 01:25:06;;;;;;;3.33;2.20;;;;;;;23.29;50.23;99790.44;4958713;29;20027;-84
2022/05/09 01:27:34;;;;;;;2.72;1.85;;;;;;;23.28;50.27;99799.34;4958623;29;20039;-84
2022/05/09 01:29:59;;;;;;;3.10;2.08;;;;;;;23.26;50.02;99796.81;4959106;29;20058;-84
2022/05/09 01:32:32;;;;;;;2.92;2.08;;;;;;;23.27;50.12;99793.19;4959474;29;20038;-85
2022/05/09 01:35:07;;;;;;;3.75;2.03;;;;;;;23.26;50.01;99795.97;4958479;29;20027;-84
2022/05/09 01:37:35;;;;;;;3.60;2.20;;;;;;;23.25;50.15;99799.56;4959011;29;20023;-85
2022/05/09 01:40:01;;;;;;;2.72;1.85;;;;;;;23.24;49.84;99804.03;4959023;29;20027;-84
2022/05/09 01:42:27;;;;;;;3.20;2.13;;;;;;;23.23;49.97;99805.00;4959127;29;20023;-85
2022/05/09 01:44:52;;;;;;;2.28;1.58;;;;;;;23.23;49.72;99807.66;4961058;29;20106;-86
2022/05/09 01:50:02;;;;;;;3.90;1.95;;;;;;;23.22;50.03;99813.06;4961738;29;20489;-86
2022/05/09 01:52:28;;;;;;;3.45;2.20;;;;;;;23.20;49.37;99813.19;4960686;29;20031;-86
2022/05/09 01:54:53;;;;;;;3.25;1.88;;;;;;;23.20;50.17;99810.53;4961016;29;20366;-86
2022/05/09 01:57:19;;;;;;;2.85;1.85;;;;;;;23.20;49.95;99813.19;4961313;29;20074;-84
2022/05/09 01:59:45;;;;;;;3.33;1.80;;;;;;;23.18;49.82;99810.63;4961748;29;20019;-86
2022/05/09 02:02:17;;;;;;;3.58;2.17;;;;;;;23.18;49.91;99815.94;4962050;29;20031;-86
2022/05/09 02:04:42;;;;;;;3.35;2.10;;;;;;;23.17;49.76;99818.72;4961224;28;20043;-86
2022/05/09 02:07:10;;;;;;;3.00;2.15;;;;;;;23.15;49.80;99825.94;4962575;29;20024;-84
2022/05/09 02:09:38;;;;;;;3.40;2.00;;;;;;;23.15;49.95;99820.63;4961809;29;20028;-85
2022/05/09 02:12:05;;;;;;;2.75;1.80;;;;;;;23.15;49.87;99817.97;4962464;29;20480;-86
2022/05/09 02:14:30;;;;;;;4.20;2.22;;;;;;;23.14;49.96;99818.91;4961519;29;20524;-85
2022/05/09 02:16:56;;;;;;;3.10;1.80;;;;;;;23.14;49.84;99816.25;4961970;29;20054;-86
2022/05/09 02:19:21;;;;;;;3.20;1.80;;;;;;;23.13;49.88;99825.16;4963364;29;20034;-86
2022/05/09 02:21:47;;;;;;;3.45;1.77;;;;;;;23.11;49.77;99824.44;4967092;29;20028;-86
2022/05/09 02:24:12;;;;;;;3.33;2.20;;;;;;;23.11;49.88;99829.75;4966099;29;20019;-86
2022/05/09 02:26:38;;;;;;;3.80;2.33;;;;;;;23.10;49.86;99833.38;4964998;29;20472;-86
2022/05/09 02:29:04;;;;;;;3.10;1.77;;;;;;;23.09;49.85;99827.19;4958404;29;20034;-87
2022/05/09 02:31:31;;;;;;;2.55;1.80;;;;;;;23.07;49.90;99824.59;4958124;29;20626;-87
2022/05/09 02:33:57;;;;;;;2.90;1.85;;;;;;;23.05;49.98;99826.53;4966354;29;20381;-87
2022/05/09 02:36:22;;;;;;;3.17;1.90;;;;;;;23.05;49.83;99826.53;4967219;29;20034;-87
2022/05/09 02:38:48;;;;;;;3.58;2.10;;;;;;;23.05;49.85;99826.53;4965799;29;20019;-85
2022/05/09 02:41:13;;;;;;;3.00;2.10;;;;;;;23.03;49.87;99825.78;4962572;29;20493;-84
2022/05/09 02:43:39;;;;;;;3.70;2.60;;;;;;;23.02;49.78;99826.75;4957993;29;20058;-83
2022/05/09 02:46:05;;;;;;;2.42;1.67;;;;;;;23.02;49.71;99826.75;4957051;29;20368;-85
2022/05/09 02:48:32;;;;;;;4.25;2.33;;;;;;;23.00;49.70;99833.94;4958408;29;20401;-84
2022/05/09 02:50:58;;;;;;;2.80;1.90;;;;;;;23.00;49.85;99828.63;4958370;29;20036;-86
2022/05/09 02:53:24;;;;;;;4.18;2.03;;;;;;;23.00;49.73;99827.78;4957893;29;20051;-85
2022/05/09 02:55:49;;;;;;;3.42;2.05;;;;;;;22.98;49.91;99819.03;4959272;29;20086;-84
2022/05/09 02:58:15;;;;;;;3.28;2.10;;;;;;;22.97;49.77;99820.84;4957966;29;20027;-84
2022/05/09 03:00:40;;;;;;;3.88;2.22;;;;;;;22.95;49.95;99819.25;4958064;29;20409;-84
2022/05/09 03:05:50;;;;;;;3.58;2.25;;;;;;;22.92;49.87;99822.94;4958974;29;20094;-85
2022/05/09 03:08:17;;;;;;;3.60;2.00;;;;;;;22.93;49.89;99822.00;4958097;29;20035;-84
2022/05/09 03:10:44;;;;;;;3.95;2.30;;;;;;;22.92;50.01;99825.59;4957754;29;20031;-86
2022/05/09 03:13:12;;;;;;;2.88;1.90;;;;;;;22.91;49.85;99826.56;4959134;29;20027;-85
2022/05/09 03:15:43;;;;;;;2.65;1.98;;;;;;;22.90;49.71;99825.69;4959318;28;20114;-85
2022/05/09 03:18:10;;;;;;;5.28;1.95;;;;;;;22.91;49.76;99829.22;4961948;29;20431;-84
2022/05/09 03:20:39;;;;;;;3.58;2.10;;;;;;;22.89;49.86;99831.13;4961578;29;20532;-85
2022/05/09 03:23:06;;;;;;;3.42;2.05;;;;;;;22.88;49.93;99830.28;4962022;29;20027;-87
2022/05/09 03:25:33;;;;;;;2.88;1.88;;;;;;;22.87;49.70;99830.38;4961213;29;20038;-84
2022/05/09 03:27:59;;;;;;;3.08;2.00;;;;;;;22.86;49.87;99832.16;4961315;29;20039;-84
2022/05/09 03:30:25;;;;;;;3.33;2.20;;;;;;;22.84;49.81;99822.56;4961015;29;20026;-84
2022/05/09 03:32:52;;;;;;;3.13;1.98;;;;;;;22.85;49.68;99825.13;4962898;28;20035;-84
2022/05/09 03:35:18;;;;;;;3.40;2.13;;;;;;;22.83;49.97;99827.06;4961527;29;20042;-84
2022/05/09 03:37:44;;;;;;;2.97;1.80;;;;;;;22.82;49.83;99821.81;4962179;29;20373;-84
2022/05/09 03:40:10;;;;;;;2.92;2.00;;;;;;;22.82;49.78;99822.69;4961409;29;20042;-86
2022/05/09 03:42:36;;;;;;;2.97;1.95;;;;;;;22.81;50.00;99828.97;4961307;29;20034;-84
2022/05/09 03:45:02;;;;;;;3.75;1.83;;;;;;;22.80;49.89;99822.78;4961179;29;20078;-84
2022/05/09 03:47:28;;;;;;;3.70;1.95;;;;;;;22.77;50.03;99822.94;4961688;29;20027;-85
2022/05/09 03:49:55;;;;;;;3.45;2.20;;;;;;;22.80;49.76;99830.75;4961553;29;20034;-84
2022/05/09 03:52:22;;;;;;;2.80;1.90;;;;;;;22.78;49.99;99827.34;4961149;29;20082;-85
2022/05/09 03:54:47;;;;;;;3.03;1.90;;;;;;;22.76;49.71;99826.56;4961342;29;20085;-84
2022/05/09 03:57:13;;;;;;;3.53;1.90;;;;;;;22.75;49.73;99830.19;4960787;29;20027;-84
2022/05/09 03:59:38;;;;;;;2.97;1.85;;;;;;;22.75;49.84;99819.53;4960734;29;20019;-88
2022/05/09 04:02:04;;;;;;;3.10;1.83;;;;;;;22.74;49.69;99832.94;4959301;29;20039;-86
2022/05/09 04:04:29;;;;;;;3.10;2.03;;;;;;;22.74;49.88;99824.94;4959102;29;20528;-85
2022/05/09 04:06:55;;;;;;;3.33;2.08;;;;;;;22.73;49.54;99832.09;4959256;29;20023;-87
2022/05/09 04:09:21;;;;;;;4.07;2.05;;;;;;;22.72;49.73;99825.06;4960963;29;20027;-84
2022/05/09 04:11:48;;;;;;;3.47;2.25;;;;;;;22.71;49.86;99828.66;4961915;29;20031;-86
2022/05/09 04:14:14;;;;;;;3.95;2.30;;;;;;;22.71;49.74;99833.97;4960441;29;20034;-85
2022/05/09 04:16:49;;;;;;;2.80;1.88;;;;;;;22.69;49.92;99838.56;4960871;29;20023;-85
2022/05/09 04:19:16;;;;;;;4.88;2.20;;;;;;;22.67;49.72;99833.31;4960749;29;20062;-84
2022/05/09 04:21:42;;;;;;;2.90;1.80;;;;;;;22.65;49.91;99829.03;4960985;29;20042;-84
2022/05/09 04:24:07;;;;;;;2.78;1.73;;;;;;;22.66;50.05;99830.75;4961421;29;20019;-85
2022/05/09 04:26:33;;;;;;;3.47;2.20;;;;;;;22.64;49.69;99832.66;4962294;28;20147;-85
2022/05/09 04:29:00;;;;;;;3.63;2.47;;;;;;;22.63;49.76;99837.16;4962102;29;20118;-85
2022/05/09 04:31:28;;;;;;;3.47;2.05;;;;;;;22.62;49.90;99839.88;4962850;29;20031;-84
2022/05/09 04:33:55;;;;;;;3.42;2.15;;;;;;;22.63;49.87;99838.94;4962735;29;20038;-85
2022/05/09 04:36:23;;;;;;;2.83;1.95;;;;;;;22.63;49.90;99836.28;4963409;29;20476;-85
2022/05/09 04:38:51;;;;;;;3.42;1.95;;;;;;;22.61;49.87;99849.66;4963609;29;20015;-84
2022/05/09 04:41:19;;;;;;;3.53;2.00;;;;;;;22.60;49.85;99841.78;4963659;29;20042;-86
2022/05/09 04:43:46;;;;;;;3.35;2.17;;;;;;;22.60;49.82;99847.09;4965584;29;20512;-87
2022/05/09 04:46:13;;;;;;;3.05;2.03;;;;;;;22.59;49.78;99848.03;4967210;29;20034;-90
2022/05/09 04:48:41;;;;;;;3.50;2.40;;;;;;;22.59;49.77;99845.38;4968902;29;20023;-87
2022/05/09 04:51:08;;;;;;;3.47;2.20;;;;;;;22.58;49.72;99849.00;4969582;29;20027;-86
2022/05/09 04:53:33;;;;;;;3.83;2.05;;;;;;;22.56;49.87;99849.09;4970377;28;20027;-86
2022/05/09 04:55:59;;;;;;;3.85;2.40;;;;;;;22.55;50.00;99844.72;4969882;29;20062;-86
2022/05/09 04:58:26;;;;;;;2.55;1.70;;;;;;;22.56;49.61;99858.88;4969922;29;20073;-87
2022/05/09 05:00:52;;;;;;;3.95;2.08;;;;;;;22.55;49.79;99857.19;4970364;29;20023;-86
2022/05/09 05:03:18;;;;;;;2.83;1.83;;;;;;;22.53;49.80;99858.09;4970042;29;20126;-86
2022/05/09 05:05:44;;;;;;;3.45;2.10;;;;;;;22.51;49.89;99859.97;4970946;29;20027;-87
2022/05/09 05:08:11;;;;;;;3.53;2.05;;;;;;;22.51;49.69;99865.31;4963947;29;20027;-85
2022/05/09 05:10:37;;;;;;;3.67;2.08;;;;;;;22.52;49.72;99860.88;4960960;29;20027;-84
2022/05/09 05:13:03;;;;;;;3.13;2.17;;;;;;;22.50;49.71;99870.72;4961368;29;20031;-84
2022/05/09 05:15:30;;;;;;;3.08;1.85;;;;;;;22.51;49.80;99875.94;4959907;29;20037;-84
2022/05/09 05:17:56;;;;;;;3.70;2.35;;;;;;;22.49;49.94;99875.19;4960379;29;20019;-84
2022/05/09 05:20:22;;;;;;;3.47;2.20;;;;;;;22.46;49.72;99878.03;4959544;29;20031;-85
2022/05/09 05:22:49;;;;;;;3.95;2.10;;;;;;;22.45;49.72;99878.97;4959764;29;20019;-84
2022/05/09 05:25:18;;;;;;;3.95;1.92;;;;;;;22.45;49.64;99881.63;4960302;29;20035;-85
2022/05/09 05:27:45;;;;;;;2.53;1.80;;;;;;;22.47;49.60;99893.03;4959288;29;20023;-85
2022/05/09 05:30:11;;;;;;;2.88;1.92;;;;;;;22.46;49.76;99888.66;4960146;28;20445;-87
2022/05/09 05:32:37;;;;;;;3.03;2.03;;;;;;;22.47;49.71;99884.22;4958280;29;20046;-85
2022/05/09 05:35:05;;;;;;;3.35;2.08;;;;;;;22.45;49.98;99886.94;4958822;29;20032;-87
2022/05/09 05:37:32;;;;;;;4.07;2.22;;;;;;;22.45;49.73;99889.63;4957549;28;20038;-84
2022/05/09 05:40:00;;;;;;;2.88;1.92;;;;;;;22.46;49.65;99888.66;4957696;29;20039;-84
2022/05/09 05:42:27;;;;;;;3.80;1.98;;;;;;;22.47;49.71;99895.69;4958405;29;20453;-85
2022/05/09 05:44:53;;;;;;;3.08;1.80;;;;;;;22.46;49.59;99904.63;4957790;29;20061;-84
2022/05/09 05:47:20;;;;;;;2.95;1.90;;;;;;;22.46;49.70;99893.97;4958497;29;20039;-84
2022/05/09 05:49:46;;;;;;;2.58;1.73;;;;;;;22.46;49.72;99901.13;4958117;29;20450;-86
2022/05/09 05:52:13;;;;;;;3.55;2.00;;;;;;;22.45;49.74;99897.59;4958454;29;20034;-84
2022/05/09 05:54:42;;;;;;;4.32;1.90;;;;;;;22.44;49.75;99901.19;4958430;29;20027;-84
2022/05/09 05:57:24;;;;;;;3.75;2.50;;;;;;;22.44;49.55;99898.53;4960874;29;20468;-85
2022/05/09 05:59:53;;;;;;;4.15;2.00;;;;;;;22.45;49.60;99902.91;4959015;29;20130;-84
2022/05/09 06:02:19;;;;;;;3.13;2.05;;;;;;;22.46;49.48;99914.41;4959083;29;20042;-85
2022/05/09 06:04:45;;;;;;;3.65;1.98;;;;;;;22.45;49.78;99916.19;4959796;29;20126;-83
2022/05/09 06:07:12;;;;;;;3.45;2.00;;;;;;;22.44;49.64;99917.16;4959901;29;20075;-87
2022/05/09 06:09:38;;;;;;;3.47;2.25;;;;;;;22.46;49.57;99914.41;4958625;29;20038;-85
2022/05/09 06:12:05;;;;;;;2.92;1.88;;;;;;;22.42;49.60;99915.53;4958883;29;20101;-84
2022/05/09 06:14:30;;;;;;;2.67;1.98;;;;;;;22.44;49.59;99922.47;4958397;29;20058;-85
2022/05/09 06:16:56;;;;;;;3.35;2.17;;;;;;;22.44;49.74;99925.13;4958821;29;20461;-84
2022/05/09 06:19:23;;;;;;;3.30;2.10;;;;;;;22.44;49.38;99921.59;4958291;29;20034;-84
2022/05/09 06:21:50;;;;;;;4.13;2.15;;;;;;;22.45;49.49;99928.63;4958072;29;20358;-85
2022/05/09 06:24:16;;;;;;;3.63;1.92;;;;;;;22.44;49.52;99927.78;4958454;29;20190;-84
2022/05/09 06:26:42;;;;;;;3.50;2.38;;;;;;;22.45;49.36;99933.94;4957791;29;20110;-85
2022/05/09 06:29:08;;;;;;;3.17;2.10;;;;;;;22.45;49.52;99934.81;4957840;29;20031;-85
2022/05/09 06:31:35;;;;;;;3.53;2.08;;;;;;;22.44;49.48;99932.25;4961410;29;20114;-84
2022/05/09 06:34:02;;;;;;;3.33;2.28;;;;;;;22.45;49.57;99934.81;4960305;29;20046;-86
2022/05/09 06:36:32;;;;;;;3.05;2.05;;;;;;;22.44;49.65;99938.44;4959982;29;20027;-87
2022/05/09 06:38:57;;;;;;;2.88;1.90;;;;;;;22.45;49.45;99945.44;4960162;29;20051;-84
2022/05/09 06:41:24;;;;;;;4.05;2.45;;;;;;;22.46;49.42;99941.00;4959813;29;20031;-85
2022/05/09 06:43:49;;;;;;;3.03;1.80;;;;;;;22.47;49.40;99948.88;4959224;29;20043;-85
2022/05/09 06:46:16;;;;;;;3.45;2.25;;;;;;;22.47;49.45;99940.88;4959858;29;20103;-85
2022/05/09 06:48:41;;;;;;;3.75;2.10;;;;;;;22.50;49.37;99946.03;4961351;29;20027;-85
2022/05/09 06:51:07;;;;;;;3.50;2.05;;;;;;;22.51;49.36;99934.44;4959652;29;20090;-85
2022/05/09 06:53:33;;;;;;;2.50;1.80;;;;;;;22.52;49.22;99935.34;4961326;29;20057;-85
2022/05/09 06:55:58;;;;;;;3.10;2.15;;;;;;;22.55;49.34;99950.25;4960779;29;20500;-86
2022/05/09 06:58:25;;;;;;;3.65;2.42;;;;;;;22.56;49.24;99946.66;4961156;29;20066;-86
2022/05/09 07:00:52;;;;;;;3.58;2.10;;;;;;;22.57;49.19;99959.84;4960975;29;20027;-86
2022/05/09 07:03:19;;;;;;;4.25;2.45;;;;;;;22.55;49.54;99951.09;4972623;28;20023;-85
2022/05/09 07:05:45;;;;;;;3.42;2.13;;;;;;;22.51;49.37;99953.06;4956626;29;20031;-86
2022/05/09 07:08:15;;;;;;;2.78;1.73;;;;;;;22.51;49.41;99955.72;4959384;29;20027;-86
2022/05/09 07:10:42;;;;;;;3.45;2.10;;;;;;;22.50;49.61;99959.34;4958798;29;20032;-86
2022/05/09 07:13:08;;;;;;;3.53;2.30;;;;;;;22.53;49.30;99953.84;4962289;29;20086;-87
2022/05/09 07:15:34;;;;;;;4.15;2.17;;;;;;;22.56;49.31;99957.28;4964524;29;20031;-86
2022/05/09 07:18:01;;;;;;;3.15;1.80;;;;;;;22.56;49.41;99946.66;4965623;29;20035;-87
2022/05/09 07:20:30;;;;;;;2.78;1.98;;;;;;;22.57;49.22;99953.69;4964471;29;20114;-87
2022/05/09 07:23:05;;;;;;;3.53;1.92;;;;;;;22.60;49.29;99953.47;4964904;29;20064;-88
2022/05/09 07:25:30;;;;;;;3.55;2.20;;;;;;;22.60;49.20;99948.16;4964863;29;20046;-88
2022/05/09 07:27:56;;;;;;;2.83;1.73;;;;;;;22.61;49.30;99944.56;4965109;29;20369;-88
2022/05/09 07:30:23;;;;;;;3.03;1.98;;;;;;;22.60;49.18;99950.81;4965639;29;20023;-87
2022/05/09 07:32:51;;;;;;;3.22;2.00;;;;;;;22.61;49.23;99961.38;4961409;29;20055;-84
2022/05/09 07:35:17;;;;;;;3.28;1.90;;;;;;;22.62;49.30;99957.75;4957227;29;20457;-86
2022/05/09 07:37:44;;;;;;;3.88;2.05;;;;;;;22.62;49.36;99959.56;4957286;29;20019;-85
2022/05/09 07:40:11;;;;;;;3.67;1.80;;;;;;;22.63;49.31;99953.31;4957409;29;20441;-84
2022/05/09 07:42:38;;;;;;;2.83;1.80;;;;;;;22.65;49.10;99962.03;4957201;29;20038;-85
2022/05/09 07:45:05;;;;;;;3.80;2.00;;;;;;;22.65;49.22;99962.03;4958873;29;20067;-85
2022/05/09 07:47:31;;;;;;;3.63;1.88;;;;;;;22.66;49.38;99964.59;4958222;29;20117;-83
2022/05/09 07:49:57;;;;;;;3.20;2.00;;;;;;;22.68;49.26;99961.88;4958188;29;20070;-84
2022/05/09 07:52:23;;;;;;;2.90;1.98;;;;;;;22.70;49.37;99959.97;4957608;29;20031;-86
2022/05/09 07:54:49;;;;;;;3.13;1.85;;;;;;;22.71;49.38;99961.66;4957983;29;20127;-84
2022/05/09 07:57:15;;;;;;;3.40;2.05;;;;;;;22.72;49.21;99974.03;4957671;29;20067;-86
2022/05/09 07:59:40;;;;;;;2.80;2.00;;;;;;;22.75;49.17;99968.53;4951606;29;20019;-86
2022/05/09 08:02:06;;;;;;;3.42;2.10;;;;;;;22.75;49.49;99972.97;4951867;28;20024;-85
2022/05/09 08:04:33;;;;;;;3.30;2.25;;;;;;;22.76;49.22;99975.53;4941844;29;20374;-87
2022/05/09 08:06:58;;;;;;;3.05;2.00;;;;;;;22.77;49.14;99968.44;4947577;29;20023;-85
2022/05/09 08:09:24;;;;;;;3.45;1.88;;;;;;;22.79;49.34;99964.72;4949197;29;20644;-85
2022/05/09 08:11:50;;;;;;;2.40;1.67;;;;;;;22.82;49.21;99968.16;4950203;29;20035;-85
2022/05/09 08:14:16;;;;;;;4.18;2.05;;;;;;;22.82;49.25;99970.81;4943439;29;20028;-84
2022/05/09 08:16:43;;;;;;;3.35;1.90;;;;;;;22.83;49.13;99965.41;4958192;29;20126;-86
2022/05/09 08:19:11;;;;;;;3.15;2.05;;;;;;;22.85;48.98;99973.28;4959897;29;20369;-84
2022/05/09 08:21:37;;;;;;;4.35;2.47;;;;;;;22.86;48.68;99969.69;4960744;29;20023;-84
2022/05/09 08:24:06;;;;;;;3.92;2.30;;;;;;;22.88;48.99;99973.09;4953860;29;20035;-86
2022/05/09 08:26:32;;;;;;;3.00;1.98;;;;;;;22.88;49.02;99973.09;4938394;29;20035;-87
2022/05/09 08:28:58;;;;;;;3.78;2.47;;;;;;;22.90;49.06;99976.53;4943741;29;20040;-86
2022/05/09 08:31:23;;;;;;;4.03;2.42;;;;;;;22.92;48.79;99982.59;4939548;29;20028;-86
2022/05/09 08:33:51;;;;;;;3.85;2.20;;;;;;;22.92;48.91;99980.78;4939012;29;20135;-88
2022/05/09 08:39:03;;;;;;;4.32;2.35;;;;;;;22.96;48.87;99981.47;4945651;29;20094;-83
2022/05/09 08:42:06;;;;;;;4.38;2.40;;;;;;;22.97;48.64;99977.00;4958148;29;20366;-84
2022/05/09 08:45:03;;;;;;;4.22;2.63;;;;;;;22.98;48.67;99974.25;4951636;29;20126;-83
2022/05/09 08:48:00;;;;;;;5.60;2.90;;;;;;;22.99;48.71;99975.94;4958079;29;20528;-84
2022/05/09 08:50:34;;;;;;;;;;;;;;;23.03;48.71;99971.28;4951176;29;20388;-84
2022/05/09 08:53:00;;;;;;;5.35;2.80;;;;;;;23.04;48.72;99979.19;4958199;29;19942;-84
2022/05/09 08:55:32;;;;;;;6.28;2.80;;;;;;;23.05;48.49;99978.22;4959692;29;20027;-84
2022/05/09 08:58:22;;;;;;;5.15;2.75;;;;;;;23.05;48.47;99980.91;4958661;29;20373;-86
2022/05/09 09:00:49;;;;;;;4.07;2.60;;;;;;;23.08;48.42;99979.84;4958294;29;20026;-83
2022/05/09 09:03:39;;;;;;;7.45;2.92;;;;;;;23.10;48.36;99983.25;4960116;28;20428;-82
2022/05/09 09:06:04;;;;;;;7.28;3.42;;;;;;;23.11;48.40;99984.13;4947822;29;20139;-85
2022/05/09 09:08:45;;;;;;;5.00;2.80;;;;;;;23.13;48.21;99971.56;4940788;29;20106;-82
2022/05/09 09:11:55;;;;;;;4.90;3.00;;;;;;;23.15;48.20;99969.69;4955309;28;20027;-83
2022/05/09 09:14:42;;;;;;;5.00;2.70;;;;;;;23.15;48.28;99973.19;4929471;29;20488;-85
2022/05/09 09:17:35;;;;;;;6.32;3.05;;;;;;;23.19;48.21;99976.50;4940369;29;20043;-84
2022/05/09 09:20:17;;;;;;;4.22;2.80;;;;;;;23.22;48.42;99971.00;4940010;29;20042;-85
2022/05/09 09:22:49;;;;;;;5.55;2.97;;;;;;;23.23;48.24;99972.72;4958922;28;20035;-86
2022/05/09 09:25:36;;;;;;;4.85;2.30;;;;;;;23.26;48.38;99971.66;4944052;29;20042;-86
2022/05/09 09:28:18;;;;;;;4.43;2.63;;;;;;;23.27;48.27;99971.59;4941967;29;20103;-86
2022/05/09 09:30:46;;;;;;;6.05;3.28;;;;;;;23.29;48.18;99971.50;4941305;29;20098;-89
2022/05/09 09:33:15;;;;;;;5.82;3.00;;;;;;;23.30;48.20;99967.88;4943869;29;20368;-88
2022/05/09 09:36:07;;;;;;;6.00;2.92;;;;;;;23.32;48.05;99966.84;4944934;29;20032;-85
2022/05/09 09:38:40;;;;;;;5.45;3.20;;;;;;;23.33;48.13;99968.56;4943163;29;20076;-86
2022/05/09 09:41:31;;;;;;;6.63;3.15;;;;;;;23.38;48.01;99962.94;4943185;28;20035;-86
2022/05/09 09:44:18;;;;;;;5.75;3.42;;;;;;;23.38;48.08;99959.44;4942658;29;20107;-87
2022/05/09 09:47:21;;;;;;;5.18;3.03;;;;;;;23.41;48.19;99959.22;4944157;29;20028;-86
2022/05/09 09:49:49;;;;;;;5.38;2.90;;;;;;;23.43;48.23;99965.31;4944501;29;20031;-86
2022/05/09 09:52:22;;;;;;;6.65;3.47;;;;;;;23.44;48.27;99959.88;4945375;29;20382;-86
2022/05/09 09:54:54;;;;;;;5.57;3.03;;;;;;;23.45;48.06;99958.94;4945135;29;20097;-85
2022/05/09 09:57:28;;;;;;;4.90;2.65;;;;;;;23.47;47.91;99964.16;4950431;29;20462;-85
2022/05/09 09:59:55;;;;;;;4.68;3.00;;;;;;;23.49;48.08;99956.94;4959490;29;20509;-86
2022/05/09 10:02:30;;;;;;;6.00;3.00;;;;;;;23.50;47.93;99958.66;4956810;29;20029;-85
2022/05/09 10:04:57;;;;;;;4.57;2.83;;;;;;;23.52;47.75;99956.75;4975209;28;20118;-85
2022/05/09 10:07:34;;;;;;;5.07;2.90;;;;;;;23.53;47.97;99950.44;4957860;28;20036;-86
2022/05/09 10:10:20;;;;;;;6.78;3.15;;;;;;;23.56;47.96;99947.59;4957276;29;20038;-86
2022/05/09 10:12:52;;;;;;;5.13;2.88;;;;;;;23.59;48.02;99944.72;4945564;29;20039;-86
2022/05/09 10:15:23;;;;;;;3.45;2.38;;;;;;;23.62;48.06;99954.34;4937333;29;20035;-85
2022/05/09 10:17:49;;;;;;;4.53;2.55;;;;;;;23.65;48.09;99947.94;4937587;29;20039;-85
2022/05/09 10:20:41;;;;;;;5.03;3.10;;;;;;;23.66;48.09;99947.00;4937386;29;20444;-87
2022/05/09 10:26:22;;;;;;;3.90;2.53;;;;;;;23.72;48.04;99951.91;4947348;29;20361;-86
2022/05/09 10:28:55;;;;;;;5.85;2.50;;;;;;;23.74;48.11;99950.03;4954847;29;20047;-84
2022/05/09 10:31:30;;;;;;;5.38;2.88;;;;;;;23.77;48.07;99949.81;4956394;29;20461;-83
2022/05/09 10:34:04;;;;;;;5.18;2.63;;;;;;;23.78;48.46;99956.84;4950430;29;20385;-84
2022/05/09 10:36:36;;;;;;;3.92;2.60;;;;;;;23.81;48.32;99951.34;4953622;29;20066;-84
2022/05/09 10:39:31;;;;;;;4.15;2.80;;;;;;;23.83;48.30;99945.91;4950357;28;20032;-84
2022/05/09 10:42:03;;;;;;;3.25;2.25;;;;;;;23.85;48.25;99947.53;4954915;29;20114;-85
2022/05/09 10:45:18;;;;;;;3.90;2.70;;;;;;;23.86;48.25;99943.91;4942946;29;20496;-82
2022/05/09 10:47:52;;;;;;;3.85;2.28;;;;;;;23.90;48.38;99927.69;4953854;29;20043;-84
2022/05/09 10:50:34;;;;;;;3.00;2.15;;;;;;;23.93;48.20;99927.50;4955946;29;20414;-84
2022/05/09 10:53:29;;;;;;;4.53;2.38;;;;;;;23.95;48.14;99930.91;4944099;29;20027;-83
2022/05/09 10:56:38;;;;;;;5.10;2.70;;;;;;;23.97;48.22;99937.00;4958531;28;20129;-85
2022/05/09 10:59:26;;;;;;;4.53;2.35;;;;;;;23.99;48.49;99940.41;4939631;29;20114;-84
2022/05/09 11:02:31;;;;;;;5.13;2.95;;;;;;;24.03;48.33;99933.94;4950999;29;20035;-86
2022/05/09 11:04:56;;;;;;;4.72;2.40;;;;;;;24.04;48.11;99932.97;4952560;29;20047;-87
2022/05/09 11:07:58;;;;;;;3.97;2.40;;;;;;;24.05;48.31;99921.34;4958242;29;20039;-88
2022/05/09 11:11:08;;;;;;;5.20;2.83;;;;;;;24.09;48.48;99928.22;4948397;29;20462;-87
2022/05/09 11:13:37;;;;;;;3.72;2.10;;;;;;;24.11;48.26;99920.09;4953010;29;20053;-90
2022/05/09 11:16:20;;;;;;;4.70;2.58;;;;;;;24.13;48.34;99915.53;4963304;29;20038;-87
2022/05/09 11:19:17;;;;;;;3.70;2.35;;;;;;;24.15;48.26;99915.44;4954501;29;20058;-89
2022/05/09 11:22:11;;;;;;;3.83;2.28;;;;;;;24.18;48.22;99917.88;4953134;29;20031;-87
2022/05/09 11:25:11;;;;;;;3.85;2.53;;;;;;;24.20;48.38;99913.28;4953813;29;20046;-87
2022/05/09 11:28:04;;;;;;;4.03;2.45;;;;;;;24.22;48.26;99911.41;4944669;29;20039;-87
2022/05/09 11:30:38;;;;;;;3.78;2.28;;;;;;;24.23;48.35;99907.78;4949189;29;20414;-87
2022/05/09 11:33:19;;;;;;;4.63;2.78;;;;;;;24.26;48.52;99911.06;4950153;29;20030;-87
2022/05/09 11:35:52;;;;;;;5.15;2.50;;;;;;;24.27;48.55;99901.28;4955026;28;20042;-88
2022/05/09 11:38:33;;;;;;;3.78;2.28;;;;;;;24.29;48.32;99906.47;4959174;29;20023;-86
2022/05/09 11:41:26;;;;;;;3.80;2.40;;;;;;;24.31;48.27;99900.09;4940358;29;20351;-89
2022/05/09 11:44:11;;;;;;;3.00;2.13;;;;;;;24.33;48.20;99903.53;4940291;29;20390;-87
2022/05/09 11:47:15;;;;;;;4.97;2.35;;;;;;;24.36;48.18;99903.28;4951009;29;20079;-88
2022/05/09 11:50:08;;;;;;;3.72;2.38;;;;;;;24.38;48.44;99896.06;4951559;29;20377;-87
2022/05/09 11:52:41;;;;;;;5.07;2.35;;;;;;;24.39;48.31;99887.09;4957665;29;20034;-85
2022/05/09 11:55:36;;;;;;;3.80;2.30;;;;;;;24.42;48.46;99883.38;4963857;29;20038;-84
2022/05/09 11:58:04;;;;;;;4.07;2.60;;;;;;;24.45;48.63;99890.31;4951244;29;20031;-86
2022/05/09 12:00:43;;;;;;;3.65;2.30;;;;;;;24.47;48.46;99883.03;4945163;29;20036;-86
2022/05/09 12:03:11;;;;;;;4.63;2.60;;;;;;;24.49;48.43;99891.78;4945327;29;20123;-85
2022/05/09 12:05:37;;;;;;;3.88;2.30;;;;;;;24.52;48.58;99888.91;4962381;29;20035;-86